메인 페이지
METAR-TAF:

METAR-TAF

공항 :

Paraguaná, 베네수엘라

위도: 11-47N, 경도: 070-09W, 고도: 23m

METAR: 누락

시각: 12:08 (16:08 UTC)

예보

예보는 6 시간 8분 전, 10:00시(UTC)에 발표되었습니다.
예보 대상 시간: 21일 12시부터 22일 12시까지 (UTC)
북동10kt
시정 10km 이상
고도 1300ft 상공 구름 보통
일시적
21일 12시부터 21일 16시까지 (UTC)
15kt, 순간 최대 풍속 18kt
시정: 9000m
고도 1300ft 상공 구름 보통
고도 10000ft 상공 구름 많음
시계 내, 이슬비
20일 2300시부터 (UTC)
10kt
시정 10km 이상
고도 1300ft 상공 구름 보통
고도 10000ft 상공 구름 보통

TAF: SVJC 211000Z 2112/2212 05010KT 9999 SCT013 TX31/18Z TN22/11Z TEMPO 2112/2116 09015G18KT 9000 VCDZ SCT013 BKN100 FM202300 08010KT 9999 SCT013 SCT100

4,000개 이상의 공항 관측 자료 및 예보 (METAR 및 TAF 보고).

지도상에서 검색 가능한 기상관측소가 노란 점과 빨간 점으로 표시되어 있습니다.

기상관측소 명을 보려면 표시 위로 마우스를 이동하세요.

날씨 관측과 예보를 보려면 클릭하세요.

지도 변경 : 확대하려면 엑스 표시가 있는 녹색 버튼, 축소하려면 빼기 표시가 있는 녹색 버튼, 다음 페이지의 지도를 보려면 녹색 화살표를 클릭하세요.


METAR-TAF: